sensor_id;sensor_type;location;lat;lon;timestamp;temperature;humidity
17813;DHT22;9030;50.792;8.320;2023-09-07T00:02:26;14.60;99.90
17813;DHT22;9030;50.792;8.320;2023-09-07T00:04:53;14.60;99.90
17813;DHT22;9030;50.792;8.320;2023-09-07T00:07:20;14.50;99.90
17813;DHT22;9030;50.792;8.320;2023-09-07T00:09:46;14.40;99.90
17813;DHT22;9030;50.792;8.320;2023-09-07T00:12:13;14.40;99.90
17813;DHT22;9030;50.792;8.320;2023-09-07T00:14:39;14.30;99.90
17813;DHT22;9030;50.792;8.320;2023-09-07T00:17:06;14.20;99.90
17813;DHT22;9030;50.792;8.320;2023-09-07T00:19:34;14.20;99.90
17813;DHT22;9030;50.792;8.320;2023-09-07T00:22:02;14.10;99.90
17813;DHT22;9030;50.792;8.320;2023-09-07T00:24:30;14.10;99.90
17813;DHT22;9030;50.792;8.320;2023-09-07T00:26:56;14.00;99.90
17813;DHT22;9030;50.792;8.320;2023-09-07T00:29:23;14.00;99.90
17813;DHT22;9030;50.792;8.320;2023-09-07T00:31:50;14.00;99.90
17813;DHT22;9030;50.792;8.320;2023-09-07T00:34:16;14.00;99.90
17813;DHT22;9030;50.792;8.320;2023-09-07T00:36:44;13.90;99.90
17813;DHT22;9030;50.792;8.320;2023-09-07T00:39:11;13.80;99.90
17813;DHT22;9030;50.792;8.320;2023-09-07T00:41:38;13.80;99.90
17813;DHT22;9030;50.792;8.320;2023-09-07T00:44:04;13.80;99.90
17813;DHT22;9030;50.792;8.320;2023-09-07T00:46:31;13.90;99.90
17813;DHT22;9030;50.792;8.320;2023-09-07T00:48:58;13.90;99.90
17813;DHT22;9030;50.792;8.320;2023-09-07T00:51:24;13.90;99.90
17813;DHT22;9030;50.792;8.320;2023-09-07T00:53:53;13.90;99.90
17813;DHT22;9030;50.792;8.320;2023-09-07T00:56:19;13.80;99.90
17813;DHT22;9030;50.792;8.320;2023-09-07T00:58:46;13.70;99.90
17813;DHT22;9030;50.792;8.320;2023-09-07T01:01:13;13.70;99.90
17813;DHT22;9030;50.792;8.320;2023-09-07T01:03:39;13.70;99.90
17813;DHT22;9030;50.792;8.320;2023-09-07T01:06:12;13.60;99.90
17813;DHT22;9030;50.792;8.320;2023-09-07T01:08:42;13.60;99.90
17813;DHT22;9030;50.792;8.320;2023-09-07T01:11:17;13.60;99.90
17813;DHT22;9030;50.792;8.320;2023-09-07T01:13:46;13.50;99.90
17813;DHT22;9030;50.792;8.320;2023-09-07T01:16:13;13.50;99.90
17813;DHT22;9030;50.792;8.320;2023-09-07T01:18:40;13.40;99.90
17813;DHT22;9030;50.792;8.320;2023-09-07T01:21:08;13.40;99.90
17813;DHT22;9030;50.792;8.320;2023-09-07T01:23:38;13.30;99.90
17813;DHT22;9030;50.792;8.320;2023-09-07T01:26:07;13.30;99.90
17813;DHT22;9030;50.792;8.320;2023-09-07T01:28:33;13.30;99.90
17813;DHT22;9030;50.792;8.320;2023-09-07T01:31:00;13.30;99.90
17813;DHT22;9030;50.792;8.320;2023-09-07T01:33:27;13.20;99.90
17813;DHT22;9030;50.792;8.320;2023-09-07T01:35:54;13.20;99.90
17813;DHT22;9030;50.792;8.320;2023-09-07T01:38:21;13.20;99.90
17813;DHT22;9030;50.792;8.320;2023-09-07T01:40:49;13.20;99.90
17813;DHT22;9030;50.792;8.320;2023-09-07T01:43:15;13.20;99.90
17813;DHT22;9030;50.792;8.320;2023-09-07T01:45:42;13.10;99.90
17813;DHT22;9030;50.792;8.320;2023-09-07T01:48:10;13.20;99.90
17813;DHT22;9030;50.792;8.320;2023-09-07T01:50:36;13.20;99.90
17813;DHT22;9030;50.792;8.320;2023-09-07T01:53:03;13.10;99.90
17813;DHT22;9030;50.792;8.320;2023-09-07T01:55:30;13.10;99.90
17813;DHT22;9030;50.792;8.320;2023-09-07T01:57:58;13.10;99.90
17813;DHT22;9030;50.792;8.320;2023-09-07T02:00:25;13.10;99.90
17813;DHT22;9030;50.792;8.320;2023-09-07T02:02:51;13.00;99.90
17813;DHT22;9030;50.792;8.320;2023-09-07T02:05:18;13.00;99.90
17813;DHT22;9030;50.792;8.320;2023-09-07T02:07:46;13.00;99.90
17813;DHT22;9030;50.792;8.320;2023-09-07T02:10:15;13.00;99.90
17813;DHT22;9030;50.792;8.320;2023-09-07T02:12:41;13.10;99.90
17813;DHT22;9030;50.792;8.320;2023-09-07T02:15:10;13.00;99.90
17813;DHT22;9030;50.792;8.320;2023-09-07T02:17:36;13.00;99.90
17813;DHT22;9030;50.792;8.320;2023-09-07T02:20:03;13.10;99.90
17813;DHT22;9030;50.792;8.320;2023-09-07T02:22:35;13.20;99.90
17813;DHT22;9030;50.792;8.320;2023-09-07T02:25:02;13.40;99.90
17813;DHT22;9030;50.792;8.320;2023-09-07T02:27:31;13.50;99.90
17813;DHT22;9030;50.792;8.320;2023-09-07T02:29:58;13.50;99.90
17813;DHT22;9030;50.792;8.320;2023-09-07T02:32:27;13.50;99.90
17813;DHT22;9030;50.792;8.320;2023-09-07T02:34:53;13.40;99.90
17813;DHT22;9030;50.792;8.320;2023-09-07T02:37:20;13.40;99.90
17813;DHT22;9030;50.792;8.320;2023-09-07T02:39:47;13.50;99.90
17813;DHT22;9030;50.792;8.320;2023-09-07T02:42:13;13.50;99.90
17813;DHT22;9030;50.792;8.320;2023-09-07T02:44:40;13.40;99.90
17813;DHT22;9030;50.792;8.320;2023-09-07T02:47:06;13.50;99.90
17813;DHT22;9030;50.792;8.320;2023-09-07T02:49:34;13.50;99.90
17813;DHT22;9030;50.792;8.320;2023-09-07T02:52:01;13.50;99.90
17813;DHT22;9030;50.792;8.320;2023-09-07T02:54:28;13.70;99.90
17813;DHT22;9030;50.792;8.320;2023-09-07T02:56:54;13.70;99.90
17813;DHT22;9030;50.792;8.320;2023-09-07T02:59:21;13.80;99.90
17813;DHT22;9030;50.792;8.320;2023-09-07T03:01:48;13.80;99.90
17813;DHT22;9030;50.792;8.320;2023-09-07T03:04:14;13.70;99.90
17813;DHT22;9030;50.792;8.320;2023-09-07T03:06:42;13.70;99.90
17813;DHT22;9030;50.792;8.320;2023-09-07T03:09:09;13.70;99.90
17813;DHT22;9030;50.792;8.320;2023-09-07T03:11:36;13.70;99.90
17813;DHT22;9030;50.792;8.320;2023-09-07T03:14:02;13.80;99.90
17813;DHT22;9030;50.792;8.320;2023-09-07T03:16:29;14.00;99.90
17813;DHT22;9030;50.792;8.320;2023-09-07T03:18:56;14.10;99.90
17813;DHT22;9030;50.792;8.320;2023-09-07T03:21:23;14.20;99.90
17813;DHT22;9030;50.792;8.320;2023-09-07T03:23:55;14.10;99.90
17813;DHT22;9030;50.792;8.320;2023-09-07T03:26:22;13.90;99.90
17813;DHT22;9030;50.792;8.320;2023-09-07T03:28:49;13.70;99.90
17813;DHT22;9030;50.792;8.320;2023-09-07T03:31:15;13.50;99.90
17813;DHT22;9030;50.792;8.320;2023-09-07T03:33:42;13.40;99.90
17813;DHT22;9030;50.792;8.320;2023-09-07T03:36:09;13.40;99.90
17813;DHT22;9030;50.792;8.320;2023-09-07T03:38:39;13.40;99.90
17813;DHT22;9030;50.792;8.320;2023-09-07T03:41:07;13.40;99.90
17813;DHT22;9030;50.792;8.320;2023-09-07T03:43:33;13.20;99.90
17813;DHT22;9030;50.792;8.320;2023-09-07T03:46:00;13.20;99.90
17813;DHT22;9030;50.792;8.320;2023-09-07T03:48:27;13.10;99.90
17813;DHT22;9030;50.792;8.320;2023-09-07T03:50:54;13.00;99.90
17813;DHT22;9030;50.792;8.320;2023-09-07T03:53:20;12.90;99.90
17813;DHT22;9030;50.792;8.320;2023-09-07T03:55:47;12.90;99.90
17813;DHT22;9030;50.792;8.320;2023-09-07T03:58:15;12.80;99.90
17813;DHT22;9030;50.792;8.320;2023-09-07T04:00:41;12.70;99.90
17813;DHT22;9030;50.792;8.320;2023-09-07T04:03:08;12.60;99.90
17813;DHT22;9030;50.792;8.320;2023-09-07T04:05:36;12.70;99.90
17813;DHT22;9030;50.792;8.320;2023-09-07T04:08:04;12.60;99.90
17813;DHT22;9030;50.792;8.320;2023-09-07T04:10:30;12.50;99.90
17813;DHT22;9030;50.792;8.320;2023-09-07T04:12:57;12.50;99.90
17813;DHT22;9030;50.792;8.320;2023-09-07T04:15:25;12.40;99.90
17813;DHT22;9030;50.792;8.320;2023-09-07T04:17:52;12.40;99.90
17813;DHT22;9030;50.792;8.320;2023-09-07T04:20:20;12.30;99.90
17813;DHT22;9030;50.792;8.320;2023-09-07T04:22:47;12.20;99.90
17813;DHT22;9030;50.792;8.320;2023-09-07T04:25:13;12.20;99.90
17813;DHT22;9030;50.792;8.320;2023-09-07T04:27:40;12.10;99.90
17813;DHT22;9030;50.792;8.320;2023-09-07T04:30:08;12.10;99.90
17813;DHT22;9030;50.792;8.320;2023-09-07T04:32:36;12.10;99.90
17813;DHT22;9030;50.792;8.320;2023-09-07T04:35:03;12.10;99.90
17813;DHT22;9030;50.792;8.320;2023-09-07T04:37:35;12.10;99.90
17813;DHT22;9030;50.792;8.320;2023-09-07T04:40:04;12.00;99.90
17813;DHT22;9030;50.792;8.320;2023-09-07T04:42:30;12.00;99.90
17813;DHT22;9030;50.792;8.320;2023-09-07T04:44:57;12.00;99.90
17813;DHT22;9030;50.792;8.320;2023-09-07T04:47:24;12.00;99.90
17813;DHT22;9030;50.792;8.320;2023-09-07T04:49:52;11.90;99.90
17813;DHT22;9030;50.792;8.320;2023-09-07T04:52:18;11.90;99.90
17813;DHT22;9030;50.792;8.320;2023-09-07T04:54:45;11.90;99.90
17813;DHT22;9030;50.792;8.320;2023-09-07T04:57:15;11.90;99.90
17813;DHT22;9030;50.792;8.320;2023-09-07T04:59:42;11.90;99.90
17813;DHT22;9030;50.792;8.320;2023-09-07T05:02:09;11.90;99.90
17813;DHT22;9030;50.792;8.320;2023-09-07T05:04:37;12.00;99.90
17813;DHT22;9030;50.792;8.320;2023-09-07T05:07:05;12.00;99.90
17813;DHT22;9030;50.792;8.320;2023-09-07T05:09:31;11.90;99.90
17813;DHT22;9030;50.792;8.320;2023-09-07T05:11:58;11.90;99.90
17813;DHT22;9030;50.792;8.320;2023-09-07T05:14:25;11.80;99.90
17813;DHT22;9030;50.792;8.320;2023-09-07T05:16:52;11.80;99.90
17813;DHT22;9030;50.792;8.320;2023-09-07T05:19:18;11.80;99.90
17813;DHT22;9030;50.792;8.320;2023-09-07T05:21:45;11.80;99.90
17813;DHT22;9030;50.792;8.320;2023-09-07T05:24:14;11.80;99.90
17813;DHT22;9030;50.792;8.320;2023-09-07T05:26:41;11.80;99.90
17813;DHT22;9030;50.792;8.320;2023-09-07T05:29:08;11.90;99.90
17813;DHT22;9030;50.792;8.320;2023-09-07T05:31:35;11.90;99.90
17813;DHT22;9030;50.792;8.320;2023-09-07T05:34:02;11.90;99.90
17813;DHT22;9030;50.792;8.320;2023-09-07T05:36:29;12.00;99.90
17813;DHT22;9030;50.792;8.320;2023-09-07T05:38:56;12.10;99.90
17813;DHT22;9030;50.792;8.320;2023-09-07T05:41:24;12.20;99.90
17813;DHT22;9030;50.792;8.320;2023-09-07T05:43:50;12.70;99.90
17813;DHT22;9030;50.792;8.320;2023-09-07T05:46:17;13.30;99.90
17813;DHT22;9030;50.792;8.320;2023-09-07T05:48:44;13.50;99.90
17813;DHT22;9030;50.792;8.320;2023-09-07T05:51:10;13.70;99.90
17813;DHT22;9030;50.792;8.320;2023-09-07T05:53:38;13.80;99.90
17813;DHT22;9030;50.792;8.320;2023-09-07T05:56:05;13.90;99.90
17813;DHT22;9030;50.792;8.320;2023-09-07T05:58:33;14.10;99.90
17813;DHT22;9030;50.792;8.320;2023-09-07T06:00:59;14.30;99.90
17813;DHT22;9030;50.792;8.320;2023-09-07T06:03:26;14.40;99.90
17813;DHT22;9030;50.792;8.320;2023-09-07T06:05:53;14.60;99.90
17813;DHT22;9030;50.792;8.320;2023-09-07T06:08:19;14.80;99.90
17813;DHT22;9030;50.792;8.320;2023-09-07T06:10:46;15.00;99.90
17813;DHT22;9030;50.792;8.320;2023-09-07T06:13:13;15.20;99.90
17813;DHT22;9030;50.792;8.320;2023-09-07T06:15:41;15.30;99.90
17813;DHT22;9030;50.792;8.320;2023-09-07T06:18:08;15.50;99.90
17813;DHT22;9030;50.792;8.320;2023-09-07T06:20:35;15.70;99.90
17813;DHT22;9030;50.792;8.320;2023-09-07T06:23:01;15.80;99.90
17813;DHT22;9030;50.792;8.320;2023-09-07T06:25:28;16.00;99.90
17813;DHT22;9030;50.792;8.320;2023-09-07T06:27:54;16.30;99.90
17813;DHT22;9030;50.792;8.320;2023-09-07T06:30:21;16.60;99.90
17813;DHT22;9030;50.792;8.320;2023-09-07T06:32:49;16.90;99.90
17813;DHT22;9030;50.792;8.320;2023-09-07T06:35:17;17.00;99.90
17813;DHT22;9030;50.792;8.320;2023-09-07T06:37:44;17.20;99.90
17813;DHT22;9030;50.792;8.320;2023-09-07T06:40:11;17.40;99.90
17813;DHT22;9030;50.792;8.320;2023-09-07T06:42:38;17.60;99.90
17813;DHT22;9030;50.792;8.320;2023-09-07T06:45:06;17.60;99.90
17813;DHT22;9030;50.792;8.320;2023-09-07T06:47:33;17.80;99.90
17813;DHT22;9030;50.792;8.320;2023-09-07T06:50:02;18.10;99.90
17813;DHT22;9030;50.792;8.320;2023-09-07T06:52:28;18.40;99.90
17813;DHT22;9030;50.792;8.320;2023-09-07T06:54:55;18.50;99.90
17813;DHT22;9030;50.792;8.320;2023-09-07T06:57:22;18.70;99.90
17813;DHT22;9030;50.792;8.320;2023-09-07T06:59:48;18.90;99.90
17813;DHT22;9030;50.792;8.320;2023-09-07T07:02:15;19.20;99.90
17813;DHT22;9030;50.792;8.320;2023-09-07T07:04:42;19.40;99.90
17813;DHT22;9030;50.792;8.320;2023-09-07T07:07:10;19.60;99.90
17813;DHT22;9030;50.792;8.320;2023-09-07T07:09:37;19.80;99.90
17813;DHT22;9030;50.792;8.320;2023-09-07T07:12:04;20.10;99.90
17813;DHT22;9030;50.792;8.320;2023-09-07T07:14:31;20.30;99.90
17813;DHT22;9030;50.792;8.320;2023-09-07T07:16:58;20.50;99.90
17813;DHT22;9030;50.792;8.320;2023-09-07T07:19:24;20.60;99.90
17813;DHT22;9030;50.792;8.320;2023-09-07T07:21:51;20.80;99.90
17813;DHT22;9030;50.792;8.320;2023-09-07T07:24:19;21.00;99.90
17813;DHT22;9030;50.792;8.320;2023-09-07T07:26:46;21.20;99.90
17813;DHT22;9030;50.792;8.320;2023-09-07T07:29:13;21.50;99.90
17813;DHT22;9030;50.792;8.320;2023-09-07T07:31:39;21.80;99.90
17813;DHT22;9030;50.792;8.320;2023-09-07T07:34:06;22.00;99.90
17813;DHT22;9030;50.792;8.320;2023-09-07T07:36:33;22.40;99.90
17813;DHT22;9030;50.792;8.320;2023-09-07T07:38:59;22.50;99.90
17813;DHT22;9030;50.792;8.320;2023-09-07T07:41:27;22.80;99.90
17813;DHT22;9030;50.792;8.320;2023-09-07T07:43:54;23.00;99.90
17813;DHT22;9030;50.792;8.320;2023-09-07T07:46:20;23.00;99.90
17813;DHT22;9030;50.792;8.320;2023-09-07T07:48:47;23.10;99.90
17813;DHT22;9030;50.792;8.320;2023-09-07T07:51:14;23.30;99.90
17813;DHT22;9030;50.792;8.320;2023-09-07T07:53:40;23.40;99.90
17813;DHT22;9030;50.792;8.320;2023-09-07T07:56:14;23.50;99.90
17813;DHT22;9030;50.792;8.320;2023-09-07T07:58:42;23.50;99.90
17813;DHT22;9030;50.792;8.320;2023-09-07T08:01:14;23.60;99.90
17813;DHT22;9030;50.792;8.320;2023-09-07T08:03:40;23.90;99.90
17813;DHT22;9030;50.792;8.320;2023-09-07T08:06:07;24.00;99.90
17813;DHT22;9030;50.792;8.320;2023-09-07T08:08:34;24.10;99.90
17813;DHT22;9030;50.792;8.320;2023-09-07T08:11:00;24.00;99.90
17813;DHT22;9030;50.792;8.320;2023-09-07T08:13:31;24.20;99.90
17813;DHT22;9030;50.792;8.320;2023-09-07T08:16:00;24.20;99.90
17813;DHT22;9030;50.792;8.320;2023-09-07T08:18:26;24.40;99.90
17813;DHT22;9030;50.792;8.320;2023-09-07T08:20:53;24.60;99.90
17813;DHT22;9030;50.792;8.320;2023-09-07T08:23:20;24.80;99.90
17813;DHT22;9030;50.792;8.320;2023-09-07T08:25:47;24.80;99.90
17813;DHT22;9030;50.792;8.320;2023-09-07T08:28:14;25.00;99.90
17813;DHT22;9030;50.792;8.320;2023-09-07T08:30:41;25.20;99.90
17813;DHT22;9030;50.792;8.320;2023-09-07T08:33:09;25.20;99.90
17813;DHT22;9030;50.792;8.320;2023-09-07T08:35:36;25.10;99.90
17813;DHT22;9030;50.792;8.320;2023-09-07T08:38:09;25.30;99.90
17813;DHT22;9030;50.792;8.320;2023-09-07T08:40:36;25.40;99.90
17813;DHT22;9030;50.792;8.320;2023-09-07T08:43:08;25.30;99.90
17813;DHT22;9030;50.792;8.320;2023-09-07T08:45:41;25.70;99.90
17813;DHT22;9030;50.792;8.320;2023-09-07T08:48:15;26.20;99.90
17813;DHT22;9030;50.792;8.320;2023-09-07T08:50:45;26.50;99.90
17813;DHT22;9030;50.792;8.320;2023-09-07T08:53:17;26.40;99.90
17813;DHT22;9030;50.792;8.320;2023-09-07T08:55:44;26.40;99.90
17813;DHT22;9030;50.792;8.320;2023-09-07T08:58:11;26.50;99.90
17813;DHT22;9030;50.792;8.320;2023-09-07T09:00:37;26.90;99.90
17813;DHT22;9030;50.792;8.320;2023-09-07T09:03:08;26.70;99.90
17813;DHT22;9030;50.792;8.320;2023-09-07T09:05:39;26.70;99.90
17813;DHT22;9030;50.792;8.320;2023-09-07T09:08:06;26.50;99.90
17813;DHT22;9030;50.792;8.320;2023-09-07T09:10:32;26.90;99.90
17813;DHT22;9030;50.792;8.320;2023-09-07T09:12:59;26.90;99.90
17813;DHT22;9030;50.792;8.320;2023-09-07T09:15:26;26.90;99.90
17813;DHT22;9030;50.792;8.320;2023-09-07T09:17:53;26.70;99.90
17813;DHT22;9030;50.792;8.320;2023-09-07T09:20:21;26.60;99.90
17813;DHT22;9030;50.792;8.320;2023-09-07T09:22:50;26.90;99.90
17813;DHT22;9030;50.792;8.320;2023-09-07T09:25:17;27.40;99.90
17813;DHT22;9030;50.792;8.320;2023-09-07T09:27:44;27.20;99.90
17813;DHT22;9030;50.792;8.320;2023-09-07T09:30:11;27.40;99.90
17813;DHT22;9030;50.792;8.320;2023-09-07T09:32:40;27.80;99.90
17813;DHT22;9030;50.792;8.320;2023-09-07T09:35:08;28.00;99.90
17813;DHT22;9030;50.792;8.320;2023-09-07T09:37:42;27.60;99.90
17813;DHT22;9030;50.792;8.320;2023-09-07T09:40:11;27.60;99.90
17813;DHT22;9030;50.792;8.320;2023-09-07T09:42:39;27.10;99.90
17813;DHT22;9030;50.792;8.320;2023-09-07T09:45:07;27.20;99.90
17813;DHT22;9030;50.792;8.320;2023-09-07T09:47:38;27.80;99.90
17813;DHT22;9030;50.792;8.320;2023-09-07T09:50:06;28.10;99.90
17813;DHT22;9030;50.792;8.320;2023-09-07T09:52:34;27.90;99.90
17813;DHT22;9030;50.792;8.320;2023-09-07T09:55:04;27.50;99.90
17813;DHT22;9030;50.792;8.320;2023-09-07T09:57:34;27.80;99.90
17813;DHT22;9030;50.792;8.320;2023-09-07T10:00:02;28.20;99.90
17813;DHT22;9030;50.792;8.320;2023-09-07T10:02:36;28.40;99.90
17813;DHT22;9030;50.792;8.320;2023-09-07T10:05:04;28.80;99.90
17813;DHT22;9030;50.792;8.320;2023-09-07T10:07:42;29.00;99.90
17813;DHT22;9030;50.792;8.320;2023-09-07T10:10:10;29.30;99.90
17813;DHT22;9030;50.792;8.320;2023-09-07T10:12:43;29.60;99.90
17813;DHT22;9030;50.792;8.320;2023-09-07T10:15:22;29.50;99.90
17813;DHT22;9030;50.792;8.320;2023-09-07T10:17:49;29.30;99.90
17813;DHT22;9030;50.792;8.320;2023-09-07T10:20:18;29.10;99.90
17813;DHT22;9030;50.792;8.320;2023-09-07T10:22:46;29.20;99.90
17813;DHT22;9030;50.792;8.320;2023-09-07T10:25:20;29.00;99.90
17813;DHT22;9030;50.792;8.320;2023-09-07T10:27:48;29.30;99.90
17813;DHT22;9030;50.792;8.320;2023-09-07T10:30:15;29.20;99.90
17813;DHT22;9030;50.792;8.320;2023-09-07T10:32:48;28.60;99.90
17813;DHT22;9030;50.792;8.320;2023-09-07T10:35:15;29.00;99.90
17813;DHT22;9030;50.792;8.320;2023-09-07T10:37:44;29.00;99.90
17813;DHT22;9030;50.792;8.320;2023-09-07T10:40:11;29.10;99.90
17813;DHT22;9030;50.792;8.320;2023-09-07T10:42:40;28.90;99.90
17813;DHT22;9030;50.792;8.320;2023-09-07T10:45:12;29.40;99.90
17813;DHT22;9030;50.792;8.320;2023-09-07T10:47:41;29.80;99.90
17813;DHT22;9030;50.792;8.320;2023-09-07T10:50:10;29.80;99.90
17813;DHT22;9030;50.792;8.320;2023-09-07T10:52:38;29.80;99.90
17813;DHT22;9030;50.792;8.320;2023-09-07T10:55:05;30.20;99.90
17813;DHT22;9030;50.792;8.320;2023-09-07T10:57:32;30.40;99.90
17813;DHT22;9030;50.792;8.320;2023-09-07T11:00:08;30.20;99.90
17813;DHT22;9030;50.792;8.320;2023-09-07T11:02:37;29.70;99.90
17813;DHT22;9030;50.792;8.320;2023-09-07T11:05:05;29.80;99.90
17813;DHT22;9030;50.792;8.320;2023-09-07T11:07:32;29.80;99.90
17813;DHT22;9030;50.792;8.320;2023-09-07T11:09:58;29.80;99.90
17813;DHT22;9030;50.792;8.320;2023-09-07T11:12:25;29.60;99.90
17813;DHT22;9030;50.792;8.320;2023-09-07T11:14:53;29.70;99.90
17813;DHT22;9030;50.792;8.320;2023-09-07T11:17:26;29.70;99.90
17813;DHT22;9030;50.792;8.320;2023-09-07T11:19:55;29.70;99.90
17813;DHT22;9030;50.792;8.320;2023-09-07T11:22:22;29.60;99.90
17813;DHT22;9030;50.792;8.320;2023-09-07T11:24:48;29.50;99.90
17813;DHT22;9030;50.792;8.320;2023-09-07T11:27:17;29.30;99.90
17813;DHT22;9030;50.792;8.320;2023-09-07T11:29:51;29.40;99.90
17813;DHT22;9030;50.792;8.320;2023-09-07T11:32:18;29.30;99.90
17813;DHT22;9030;50.792;8.320;2023-09-07T11:34:47;29.00;99.90
17813;DHT22;9030;50.792;8.320;2023-09-07T11:37:16;29.60;99.90
17813;DHT22;9030;50.792;8.320;2023-09-07T11:39:43;29.40;99.90
17813;DHT22;9030;50.792;8.320;2023-09-07T11:42:09;29.20;99.90
17813;DHT22;9030;50.792;8.320;2023-09-07T11:44:36;29.10;99.90
17813;DHT22;9030;50.792;8.320;2023-09-07T11:47:03;29.60;99.90
17813;DHT22;9030;50.792;8.320;2023-09-07T11:49:30;29.50;99.90
17813;DHT22;9030;50.792;8.320;2023-09-07T11:51:57;29.20;99.90
17813;DHT22;9030;50.792;8.320;2023-09-07T11:54:25;29.30;99.90
17813;DHT22;9030;50.792;8.320;2023-09-07T11:56:52;29.60;99.90
17813;DHT22;9030;50.792;8.320;2023-09-07T11:59:19;29.30;99.90
17813;DHT22;9030;50.792;8.320;2023-09-07T12:01:46;29.20;99.90
17813;DHT22;9030;50.792;8.320;2023-09-07T12:04:12;29.30;99.90
17813;DHT22;9030;50.792;8.320;2023-09-07T12:06:39;29.60;99.90
17813;DHT22;9030;50.792;8.320;2023-09-07T12:09:07;29.70;99.90
17813;DHT22;9030;50.792;8.320;2023-09-07T12:11:36;29.50;99.90
17813;DHT22;9030;50.792;8.320;2023-09-07T12:14:02;29.70;99.90
17813;DHT22;9030;50.792;8.320;2023-09-07T12:16:30;29.70;99.90
17813;DHT22;9030;50.792;8.320;2023-09-07T12:18:57;29.60;99.90
17813;DHT22;9030;50.792;8.320;2023-09-07T12:21:24;29.50;99.90
17813;DHT22;9030;50.792;8.320;2023-09-07T12:23:51;29.70;99.90
17813;DHT22;9030;50.792;8.320;2023-09-07T12:26:17;29.70;99.90
17813;DHT22;9030;50.792;8.320;2023-09-07T12:28:47;29.70;99.90
17813;DHT22;9030;50.792;8.320;2023-09-07T12:31:14;29.60;99.90
17813;DHT22;9030;50.792;8.320;2023-09-07T12:33:42;29.60;99.90
17813;DHT22;9030;50.792;8.320;2023-09-07T12:36:08;29.70;99.90
17813;DHT22;9030;50.792;8.320;2023-09-07T12:38:37;29.60;99.90
17813;DHT22;9030;50.792;8.320;2023-09-07T12:41:04;29.60;99.90
17813;DHT22;9030;50.792;8.320;2023-09-07T12:43:30;29.40;99.90
17813;DHT22;9030;50.792;8.320;2023-09-07T12:45:59;29.50;99.90
17813;DHT22;9030;50.792;8.320;2023-09-07T12:48:25;29.30;99.90
17813;DHT22;9030;50.792;8.320;2023-09-07T12:50:53;29.00;99.90
17813;DHT22;9030;50.792;8.320;2023-09-07T12:53:19;28.70;99.90
17813;DHT22;9030;50.792;8.320;2023-09-07T12:55:50;28.60;99.90
17813;DHT22;9030;50.792;8.320;2023-09-07T12:58:17;28.60;99.90
17813;DHT22;9030;50.792;8.320;2023-09-07T13:00:43;28.60;99.90
17813;DHT22;9030;50.792;8.320;2023-09-07T13:03:11;28.40;99.90
17813;DHT22;9030;50.792;8.320;2023-09-07T13:05:38;28.30;99.90
17813;DHT22;9030;50.792;8.320;2023-09-07T13:08:05;28.10;99.90
17813;DHT22;9030;50.792;8.320;2023-09-07T13:10:32;28.10;99.90
17813;DHT22;9030;50.792;8.320;2023-09-07T13:12:58;28.40;99.90
17813;DHT22;9030;50.792;8.320;2023-09-07T13:15:25;28.50;99.90
17813;DHT22;9030;50.792;8.320;2023-09-07T13:17:52;28.10;99.90
17813;DHT22;9030;50.792;8.320;2023-09-07T13:20:20;28.10;99.90
17813;DHT22;9030;50.792;8.320;2023-09-07T13:22:46;28.10;99.90
17813;DHT22;9030;50.792;8.320;2023-09-07T13:25:13;28.20;99.90
17813;DHT22;9030;50.792;8.320;2023-09-07T13:27:40;28.30;99.90
17813;DHT22;9030;50.792;8.320;2023-09-07T13:30:07;28.20;99.90
17813;DHT22;9030;50.792;8.320;2023-09-07T13:32:34;28.10;99.90
17813;DHT22;9030;50.792;8.320;2023-09-07T13:35:00;28.10;99.90
17813;DHT22;9030;50.792;8.320;2023-09-07T13:37:29;27.90;99.90
17813;DHT22;9030;50.792;8.320;2023-09-07T13:39:56;27.80;99.90
17813;DHT22;9030;50.792;8.320;2023-09-07T13:42:23;27.90;99.90
17813;DHT22;9030;50.792;8.320;2023-09-07T13:44:49;27.80;99.90
17813;DHT22;9030;50.792;8.320;2023-09-07T13:47:16;27.80;99.90
17813;DHT22;9030;50.792;8.320;2023-09-07T13:49:42;27.80;99.90
17813;DHT22;9030;50.792;8.320;2023-09-07T13:52:09;27.60;99.90
17813;DHT22;9030;50.792;8.320;2023-09-07T13:54:37;27.60;99.90
17813;DHT22;9030;50.792;8.320;2023-09-07T13:57:04;27.60;99.90
17813;DHT22;9030;50.792;8.320;2023-09-07T13:59:31;27.50;99.90
17813;DHT22;9030;50.792;8.320;2023-09-07T14:01:59;27.40;99.90
17813;DHT22;9030;50.792;8.320;2023-09-07T14:04:26;27.50;99.90
17813;DHT22;9030;50.792;8.320;2023-09-07T14:06:54;27.60;99.90
17813;DHT22;9030;50.792;8.320;2023-09-07T14:09:20;27.60;99.90
17813;DHT22;9030;50.792;8.320;2023-09-07T14:11:49;27.50;99.90
17813;DHT22;9030;50.792;8.320;2023-09-07T14:14:16;27.40;99.90
17813;DHT22;9030;50.792;8.320;2023-09-07T14:16:43;27.40;99.90
17813;DHT22;9030;50.792;8.320;2023-09-07T14:19:10;27.30;99.90
17813;DHT22;9030;50.792;8.320;2023-09-07T14:21:37;27.30;99.90
17813;DHT22;9030;50.792;8.320;2023-09-07T14:24:04;27.30;99.90
17813;DHT22;9030;50.792;8.320;2023-09-07T14:26:30;27.30;99.90
17813;DHT22;9030;50.792;8.320;2023-09-07T14:28:58;27.40;99.90
17813;DHT22;9030;50.792;8.320;2023-09-07T14:31:25;27.40;99.90
17813;DHT22;9030;50.792;8.320;2023-09-07T14:33:52;27.30;99.90
17813;DHT22;9030;50.792;8.320;2023-09-07T14:36:18;27.30;99.90
17813;DHT22;9030;50.792;8.320;2023-09-07T14:38:45;27.40;99.90
17813;DHT22;9030;50.792;8.320;2023-09-07T14:41:12;27.50;99.90
17813;DHT22;9030;50.792;8.320;2023-09-07T14:43:44;27.50;99.90
17813;DHT22;9030;50.792;8.320;2023-09-07T14:46:12;27.50;99.90
17813;DHT22;9030;50.792;8.320;2023-09-07T14:48:39;27.50;99.90
17813;DHT22;9030;50.792;8.320;2023-09-07T14:51:06;27.40;99.90
17813;DHT22;9030;50.792;8.320;2023-09-07T14:53:32;27.50;99.90
17813;DHT22;9030;50.792;8.320;2023-09-07T14:55:59;27.60;99.90
17813;DHT22;9030;50.792;8.320;2023-09-07T14:58:26;27.50;99.90
17813;DHT22;9030;50.792;8.320;2023-09-07T15:00:52;27.50;99.90
17813;DHT22;9030;50.792;8.320;2023-09-07T15:03:20;27.60;99.90
17813;DHT22;9030;50.792;8.320;2023-09-07T15:05:47;27.60;99.90
17813;DHT22;9030;50.792;8.320;2023-09-07T15:08:14;27.60;99.90
17813;DHT22;9030;50.792;8.320;2023-09-07T15:10:40;27.80;99.90
17813;DHT22;9030;50.792;8.320;2023-09-07T15:13:08;27.90;99.90
17813;DHT22;9030;50.792;8.320;2023-09-07T15:15:35;27.90;99.90
17813;DHT22;9030;50.792;8.320;2023-09-07T15:18:05;27.80;99.90
17813;DHT22;9030;50.792;8.320;2023-09-07T15:20:34;27.90;99.90
17813;DHT22;9030;50.792;8.320;2023-09-07T15:23:00;27.90;99.90
17813;DHT22;9030;50.792;8.320;2023-09-07T15:25:27;28.00;99.90
17813;DHT22;9030;50.792;8.320;2023-09-07T15:27:54;28.00;99.90
17813;DHT22;9030;50.792;8.320;2023-09-07T15:30:21;28.00;99.90
17813;DHT22;9030;50.792;8.320;2023-09-07T15:32:48;28.10;99.90
17813;DHT22;9030;50.792;8.320;2023-09-07T15:35:15;28.00;99.90
17813;DHT22;9030;50.792;8.320;2023-09-07T15:37:43;28.00;99.90
17813;DHT22;9030;50.792;8.320;2023-09-07T15:40:12;27.90;99.90
17813;DHT22;9030;50.792;8.320;2023-09-07T15:42:39;27.90;99.90
17813;DHT22;9030;50.792;8.320;2023-09-07T15:45:06;27.90;99.90
17813;DHT22;9030;50.792;8.320;2023-09-07T15:47:33;27.90;99.90